Terminal Aerodrome Forecast
Issued by NWS

Home | Current Version | Previous Version | Text Only | Print | Product List | Glossary On
Versions: 1 2 3 4 5 6 7 8 9 10 11 12 13 14 15
513
FTUS45 KABQ 241152
TAFLVS
TAF
KLVS 241152Z 2412/2512 25015KT P6SM SCT060 BKN120
      TEMPO 2412/2416 6SM -SN BKN050
     FM241600 25028G40KT P6SM BKN070
     FM250000 26015G23KT P6SM SCT080
     FM250800 32010KT P6SM SCT050=

USA.gov is the U.S. government's official web portal to all federal, state and local government web resources and services.